createdAt,value
2018-01-11T00:00:51.989Z,0
2018-01-11T00:01:51.696Z,0
2018-01-11T00:02:52.242Z,0
2018-01-11T00:03:52.214Z,0
2018-01-11T00:04:51.914Z,0
2018-01-11T00:05:51.897Z,0
2018-01-11T00:06:51.883Z,0
2018-01-11T00:07:52.417Z,0
2018-01-11T00:08:51.588Z,0
2018-01-11T00:09:52.096Z,0
2018-01-11T00:10:51.815Z,0
2018-01-11T00:11:51.515Z,0
2018-01-11T00:12:52.355Z,0
2018-01-11T00:13:51.493Z,0
2018-01-11T00:14:52.020Z,0
2018-01-11T00:15:51.981Z,0
2018-01-11T00:16:51.978Z,0
2018-01-11T00:17:51.946Z,0
2018-01-11T00:18:51.675Z,0
2018-01-11T00:19:51.660Z,0
2018-01-11T00:20:51.622Z,0
2018-01-11T00:21:51.874Z,0
2018-01-11T00:22:51.587Z,0
2018-01-11T00:23:51.576Z,0
2018-01-11T00:24:51.275Z,0
2018-01-11T00:25:51.524Z,0
2018-01-11T00:26:52.093Z,0
2018-01-11T00:27:52.044Z,0
2018-01-11T00:28:51.472Z,0
2018-01-11T00:29:52.018Z,0
2018-01-11T00:30:52.271Z,0
2018-01-11T00:31:51.437Z,0
2018-01-11T00:32:51.398Z,0
2018-01-11T00:33:51.654Z,0
2018-01-11T00:34:51.372Z,0
2018-01-11T00:35:51.394Z,0
2018-01-11T00:36:51.057Z,0
2018-01-11T00:37:51.850Z,0
2018-01-11T00:38:51.833Z,0
2018-01-11T00:39:51.283Z,0
2018-01-11T00:40:51.523Z,0
2018-01-11T00:41:52.085Z,0
2018-01-11T00:42:51.208Z,0
2018-01-11T00:43:51.469Z,0
2018-01-11T00:44:51.181Z,0
2018-01-11T00:45:51.705Z,0
2018-01-11T00:46:51.424Z,0
2018-01-11T00:47:51.119Z,0
2018-01-11T00:48:50.861Z,0
2018-01-11T00:49:51.368Z,0
2018-01-11T00:50:50.797Z,0
2018-01-11T00:51:50.778Z,0
2018-01-11T00:52:51.027Z,0
2018-01-11T00:53:51.018Z,0
2018-01-11T00:54:51.268Z,0
2018-01-11T00:55:50.994Z,0
2018-01-11T00:56:51.507Z,0
2018-01-11T00:57:51.000Z,0
2018-01-11T00:58:50.918Z,0
2018-01-11T00:59:50.899Z,0
2018-01-11T01:00:51.159Z,0
2018-01-11T01:01:50.597Z,0
2018-01-11T01:02:50.591Z,0
2018-01-11T01:03:51.119Z,0
2018-01-11T01:04:51.098Z,0
2018-01-11T01:05:50.526Z,0
2018-01-11T01:06:51.326Z,0
2018-01-11T01:07:51.032Z,0
2018-01-11T01:08:50.504Z,0
2018-01-11T01:09:51.281Z,0
2018-01-11T01:10:50.990Z,0
2018-01-11T01:11:50.409Z,0
2018-01-11T01:12:50.664Z,0
2018-01-11T01:13:50.378Z,0
2018-01-11T01:14:50.922Z,0
2018-01-11T01:15:51.167Z,0
2018-01-11T01:16:50.864Z,0
2018-01-11T01:17:50.837Z,0
2018-01-11T01:18:51.379Z,0
2018-01-11T01:19:50.531Z,0
2018-01-11T01:20:50.821Z,0
2018-01-11T01:21:51.042Z,0
2018-01-11T01:22:51.024Z,0
2018-01-11T01:23:50.725Z,0
2018-01-11T01:24:50.713Z,0
2018-01-11T01:25:50.700Z,0
2018-01-11T01:26:50.404Z,0
2018-01-11T01:27:50.116Z,0
2018-01-11T01:28:50.092Z,0
2018-01-11T01:29:50.910Z,0
2018-01-11T01:30:50.880Z,0
2018-01-11T01:31:50.329Z,0
2018-01-11T01:32:50.294Z,0
2018-01-11T01:33:50.817Z,0
2018-01-11T01:34:50.256Z,0
2018-01-11T01:35:50.242Z,0
2018-01-11T01:36:50.253Z,0
2018-01-11T01:37:50.213Z,0
2018-01-11T01:38:50.729Z,0
2018-01-11T01:39:50.159Z,0
2018-01-11T01:40:50.689Z,0
2018-01-11T01:41:49.861Z,0
2018-01-11T01:42:50.120Z,0
2018-01-11T01:43:50.088Z,0
2018-01-11T01:44:50.093Z,0
2018-01-11T01:45:50.327Z,0
2018-01-11T01:46:49.762Z,0
2018-01-11T01:47:50.565Z,0
2018-01-11T01:48:50.020Z,0
2018-01-11T01:49:49.970Z,0
2018-01-11T01:50:49.697Z,0
2018-01-11T01:51:49.671Z,0
2018-01-11T01:52:49.930Z,0
2018-01-11T01:53:49.895Z,0
2018-01-11T01:54:49.607Z,0
2018-01-11T01:55:50.174Z,0
2018-01-11T01:56:50.123Z,0
2018-01-11T01:57:50.101Z,0
2018-01-11T01:58:49.558Z,0
2018-01-11T01:59:50.084Z,0
2018-01-11T02:00:49.772Z,0
2018-01-11T02:01:49.762Z,0
2018-01-11T02:02:50.281Z,0
2018-01-11T02:03:50.546Z,0
2018-01-11T02:04:50.268Z,0
2018-01-11T02:05:50.247Z,0
2018-01-11T02:06:49.666Z,0
2018-01-11T02:07:49.917Z,0
2018-01-11T02:08:49.898Z,0
2018-01-11T02:09:49.332Z,0
2018-01-11T02:10:50.139Z,0
2018-01-11T02:11:49.578Z,0
2018-01-11T02:12:49.543Z,0
2018-01-11T02:13:49.551Z,0
2018-01-11T02:14:49.236Z,0
2018-01-11T02:15:49.773Z,0
2018-01-11T02:16:49.197Z,0
2018-01-11T02:17:49.998Z,0
2018-01-11T02:18:49.995Z,0
2018-01-11T02:19:49.437Z,0
2018-01-11T02:20:49.663Z,0
2018-01-11T02:21:49.185Z,0
2018-01-11T02:22:49.932Z,0
2018-01-11T02:23:49.363Z,0
2018-01-11T02:24:49.330Z,0
2018-01-11T02:25:49.591Z,0
2018-01-11T02:26:49.288Z,0
2018-01-11T02:27:49.542Z,0
2018-01-11T02:28:49.260Z,0
2018-01-11T02:29:49.232Z,0
2018-01-11T02:30:49.767Z,0
2018-01-11T02:31:49.745Z,0
2018-01-11T02:32:49.753Z,0
2018-01-11T02:33:49.435Z,0
2018-01-11T02:34:49.170Z,0
2018-01-11T02:35:48.854Z,0
2018-01-11T02:36:49.396Z,0
2018-01-11T02:37:49.363Z,0
2018-01-11T02:38:49.355Z,0
2018-01-11T02:39:49.596Z,0
2018-01-11T02:40:49.031Z,0
2018-01-11T02:41:49.584Z,0
2018-01-11T02:42:48.737Z,0
2018-01-11T02:43:48.990Z,0
2018-01-11T02:45:21.317Z,0
2018-01-11T02:45:49.492Z,0
2018-01-11T02:46:49.201Z,0
2018-01-11T02:47:48.908Z,0
2018-01-11T02:48:48.888Z,0
2018-01-11T02:49:48.884Z,0
2018-01-11T02:50:48.858Z,0
2018-01-11T02:51:49.101Z,0
2018-01-11T02:52:48.809Z,0
2018-01-11T02:53:49.090Z,0
2018-01-11T02:54:48.514Z,0
2018-01-11T02:55:48.995Z,0
2018-01-11T02:56:49.074Z,0
2018-01-11T02:57:48.446Z,0
2018-01-11T02:58:49.257Z,0
2018-01-11T02:59:48.987Z,0
2018-01-11T03:00:48.681Z,0
2018-01-11T03:01:48.373Z,0
2018-01-11T03:02:48.915Z,0
2018-01-11T03:03:48.922Z,0
2018-01-11T03:04:49.313Z,0
2018-01-11T03:05:48.842Z,0
2018-01-11T03:06:48.551Z,0
2018-01-11T03:07:48.874Z,0
2018-01-11T03:08:48.790Z,0
2018-01-11T03:09:48.788Z,0
2018-01-11T03:10:48.479Z,0
2018-01-11T03:11:48.733Z,0
2018-01-11T03:12:48.737Z,0
2018-01-11T03:13:48.430Z,0
2018-01-11T03:14:48.438Z,0
2018-01-11T03:15:48.384Z,0
2018-01-11T03:16:48.640Z,0
2018-01-11T03:17:48.644Z,0
2018-01-11T03:18:48.367Z,0
2018-01-11T03:19:48.325Z,0
2018-01-11T03:20:48.626Z,0
2018-01-11T03:21:48.836Z,0
2018-01-11T03:22:48.560Z,0
2018-01-11T03:23:48.245Z,0
2018-01-11T03:24:48.503Z,0
2018-01-11T03:25:48.471Z,0
2018-01-11T03:26:48.197Z,0
2018-01-11T03:27:48.474Z,0
2018-01-11T03:28:48.165Z,0
2018-01-11T03:29:48.124Z,0
2018-01-11T03:30:48.384Z,0
2018-01-11T03:31:48.104Z,0
2018-01-11T03:32:48.073Z,0
2018-01-11T03:33:47.774Z,0
2018-01-11T03:34:48.042Z,0
2018-01-11T03:35:48.017Z,0
2018-01-11T03:36:47.741Z,0
2018-01-11T03:37:48.268Z,0
2018-01-11T03:38:48.532Z,0
2018-01-11T03:39:48.481Z,0
2018-01-11T03:40:48.206Z,0
2018-01-11T03:41:47.626Z,0
2018-01-11T03:42:48.146Z,0
2018-01-11T03:43:47.879Z,0
2018-01-11T03:44:47.578Z,0
2018-01-11T03:45:48.641Z,0
2018-01-11T03:46:47.814Z,0
2018-01-11T03:47:47.793Z,0
2018-01-11T03:48:47.778Z,0
2018-01-11T03:49:48.027Z,0
2018-01-11T03:50:48.019Z,0
2018-01-11T03:51:48.252Z,0
2018-01-11T03:52:47.970Z,0
2018-01-11T03:53:47.743Z,0
2018-01-11T03:54:47.683Z,0
2018-01-11T03:55:47.646Z,0
2018-01-11T03:56:47.921Z,0
2018-01-11T03:57:47.879Z,0
2018-01-11T03:58:47.852Z,0
2018-01-11T03:59:47.887Z,0
2018-01-11T04:00:47.282Z,0
2018-01-11T04:01:47.256Z,0
2018-01-11T04:02:47.506Z,0
2018-01-11T04:03:47.505Z,0
2018-01-11T04:04:47.205Z,0
2018-01-11T04:05:47.997Z,0
2018-01-11T04:06:47.164Z,0
2018-01-11T04:07:47.433Z,0
2018-01-11T04:08:47.943Z,0
2018-01-11T04:09:47.649Z,0
2018-01-11T04:10:47.114Z,0
2018-01-11T04:11:47.903Z,0
2018-01-11T04:12:47.338Z,0
2018-01-11T04:13:47.858Z,0
2018-01-11T04:14:47.316Z,0
2018-01-11T04:15:47.269Z,0
2018-01-11T04:16:46.981Z,0
2018-01-11T04:17:46.960Z,0
2018-01-11T04:18:46.981Z,0
2018-01-11T04:19:47.484Z,0
2018-01-11T04:20:47.454Z,0
2018-01-11T04:21:47.169Z,0
2018-01-11T04:22:46.895Z,0
2018-01-11T04:23:47.401Z,0
2018-01-11T04:24:46.826Z,0
2018-01-11T04:25:47.672Z,0
2018-01-11T04:26:47.349Z,0
2018-01-11T04:27:47.056Z,0
2018-01-11T04:28:46.778Z,0
2018-01-11T04:29:47.041Z,0
2018-01-11T04:30:46.986Z,0
2018-01-11T04:31:46.697Z,0
2018-01-11T04:32:47.531Z,0
2018-01-11T04:33:46.947Z,0
2018-01-11T04:34:47.182Z,0
2018-01-11T04:35:47.286Z,0
2018-01-11T04:36:47.164Z,0
2018-01-11T04:37:46.906Z,0
2018-01-11T04:38:47.144Z,0
2018-01-11T04:39:46.820Z,0
2018-01-11T04:40:46.813Z,0
2018-01-11T04:41:46.817Z,0
2018-01-11T04:42:47.042Z,0
2018-01-11T04:43:46.675Z,0
2018-01-11T04:44:46.726Z,0
2018-01-11T04:45:47.548Z,0
2018-01-11T04:46:46.693Z,0
2018-01-11T04:47:46.410Z,0
2018-01-11T04:48:46.952Z,0
2018-01-11T04:49:46.693Z,0
2018-01-11T04:50:46.349Z,0
2018-01-11T04:51:46.595Z,0
2018-01-11T04:52:46.922Z,0
2018-01-11T04:53:46.561Z,0
2018-01-11T04:54:46.282Z,0
2018-01-11T04:55:46.527Z,0
2018-01-11T04:56:46.773Z,0
2018-01-11T04:57:46.768Z,0
2018-01-11T04:58:46.465Z,0
2018-01-11T04:59:46.195Z,0
2018-01-11T05:00:46.433Z,0
2018-01-11T05:01:46.952Z,0
2018-01-11T05:02:46.245Z,0
2018-01-11T05:03:46.375Z,0
2018-01-11T05:04:46.356Z,0
2018-01-11T05:05:46.334Z,0
2018-01-11T05:06:46.861Z,0
2018-01-11T05:07:47.136Z,0
2018-01-11T05:08:46.281Z,0
2018-01-11T05:09:46.828Z,0
2018-01-11T05:10:46.256Z,0
2018-01-11T05:11:46.503Z,0
2018-01-11T05:12:45.935Z,0
2018-01-11T05:13:46.748Z,0
2018-01-11T05:14:46.448Z,0
2018-01-11T05:15:46.964Z,0
2018-01-11T05:16:46.464Z,0
2018-01-11T05:17:46.648Z,0
2018-01-11T05:18:46.131Z,0
2018-01-11T05:19:46.341Z,0
2018-01-11T05:20:46.330Z,0
2018-01-11T05:21:46.331Z,0
2018-01-11T05:22:46.824Z,0
2018-01-11T05:23:45.990Z,0
2018-01-11T05:24:46.263Z,0
2018-01-11T05:25:45.960Z,0
2018-01-11T05:26:46.478Z,0
2018-01-11T05:27:46.211Z,0
2018-01-11T05:28:46.184Z,0
2018-01-11T05:29:45.610Z,0
2018-01-11T05:30:46.132Z,0
2018-01-11T05:31:46.115Z,0
2018-01-11T05:32:45.569Z,0
2018-01-11T05:33:46.357Z,0
2018-01-11T05:34:45.793Z,0
2018-01-11T05:35:45.769Z,0
2018-01-11T05:36:45.757Z,0
2018-01-11T05:37:46.025Z,0
2018-01-11T05:38:45.739Z,0
2018-01-11T05:39:45.702Z,0
2018-01-11T05:40:46.240Z,0
2018-01-11T05:41:45.652Z,0
2018-01-11T05:42:45.636Z,0
2018-01-11T05:43:45.633Z,0
2018-01-11T05:44:45.345Z,0
2018-01-11T05:45:46.121Z,0
2018-01-11T05:46:45.841Z,0
2018-01-11T05:47:46.119Z,0
2018-01-11T05:48:46.066Z,0
2018-01-11T05:49:45.793Z,0
2018-01-11T05:50:45.485Z,0
2018-01-11T05:51:45.198Z,0
2018-01-11T05:52:45.455Z,0
2018-01-11T05:53:45.701Z,0
2018-01-11T05:54:45.714Z,0
2018-01-11T05:55:45.418Z,0
2018-01-11T05:56:45.935Z,0
2018-01-11T05:57:45.624Z,0
2018-01-11T05:58:45.876Z,0
2018-01-11T05:59:45.584Z,0
2018-01-11T06:00:45.294Z,0
2018-01-11T06:01:45.297Z,0
2018-01-11T06:02:45.269Z,0
2018-01-11T06:03:45.517Z,0
2018-01-11T06:04:45.496Z,0
2018-01-11T06:05:45.484Z,0
2018-01-11T06:06:45.463Z,0
2018-01-11T06:07:45.712Z,0
2018-01-11T06:08:44.872Z,0
2018-01-11T06:09:45.395Z,0
2018-01-11T06:10:45.388Z,0
2018-01-11T06:11:45.630Z,0
2018-01-11T06:12:45.655Z,0
2018-01-11T06:13:45.604Z,0
2018-01-11T06:14:45.053Z,0
2018-01-11T06:15:45.030Z,0
2018-01-11T06:16:45.272Z,0
2018-01-11T06:17:45.246Z,0
2018-01-11T06:18:45.227Z,0
2018-01-11T06:19:44.957Z,0
2018-01-11T06:20:44.653Z,0
2018-01-11T06:21:44.909Z,0
2018-01-11T06:22:44.882Z,0
2018-01-11T06:23:44.859Z,0
2018-01-11T06:24:45.123Z,0
2018-01-11T06:25:44.551Z,0
2018-01-11T06:26:45.085Z,0
2018-01-11T06:27:45.070Z,0
2018-01-11T06:28:44.534Z,0
2018-01-11T06:29:45.285Z,0
2018-01-11T06:30:45.019Z,0
2018-01-11T06:31:44.706Z,0
2018-01-11T06:32:45.511Z,0
2018-01-11T06:33:44.675Z,0
2018-01-11T06:34:44.655Z,0
2018-01-11T06:35:45.176Z,0
2018-01-11T06:36:44.957Z,0
2018-01-11T06:37:44.594Z,0
2018-01-11T06:38:44.865Z,0
2018-01-11T06:39:44.848Z,0
2018-01-11T06:40:44.821Z,0
2018-01-11T06:41:44.524Z,0
2018-01-11T06:42:44.773Z,0
2018-01-11T06:43:45.018Z,0
2018-01-11T06:44:45.015Z,0
2018-01-11T06:45:44.985Z,0
2018-01-11T06:46:44.445Z,0
2018-01-11T06:47:44.964Z,0
2018-01-11T06:48:44.931Z,0
2018-01-11T06:49:44.911Z,0
2018-01-11T06:50:44.638Z,0
2018-01-11T06:51:44.659Z,0
2018-01-11T06:52:44.583Z,0
2018-01-11T06:53:44.833Z,0
2018-01-11T06:54:44.289Z,0
2018-01-11T06:55:44.254Z,0
2018-01-11T06:56:44.508Z,0
2018-01-11T06:57:44.489Z,0
2018-01-11T06:58:44.496Z,0
2018-01-11T06:59:44.193Z,0
2018-01-11T07:00:44.160Z,0
2018-01-11T07:01:44.988Z,0
2018-01-11T07:02:44.131Z,0
2018-01-11T07:03:44.096Z,0
2018-01-11T07:04:44.398Z,5
2018-01-11T07:05:44.345Z,5
2018-01-11T07:06:44.330Z,5
2018-01-11T07:07:44.023Z,5
2018-01-11T07:08:44.022Z,5
2018-01-11T07:09:44.802Z,5
2018-01-11T07:10:43.963Z,5
2018-01-11T07:11:44.220Z,5
2018-01-11T07:12:43.660Z,5
2018-01-11T07:13:44.181Z,10
2018-01-11T07:14:44.178Z,10
2018-01-11T07:15:43.905Z,10
2018-01-11T07:16:44.144Z,10
2018-01-11T07:17:43.847Z,10
2018-01-11T07:18:43.544Z,10
2018-01-11T07:19:44.340Z,10
2018-01-11T07:20:44.064Z,15
2018-01-11T07:21:43.498Z,15
2018-01-11T07:22:44.285Z,15
2018-01-11T07:23:43.992Z,15
2018-01-11T07:24:43.705Z,15
2018-01-11T07:25:44.231Z,15
2018-01-11T07:26:43.972Z,20
2018-01-11T07:27:43.932Z,20
2018-01-11T07:28:44.244Z,20
2018-01-11T07:29:43.885Z,20
2018-01-11T07:30:43.861Z,20
2018-01-11T07:31:43.572Z,20
2018-01-11T07:32:43.562Z,25
2018-01-11T07:33:43.808Z,25
2018-01-11T07:34:43.237Z,25
2018-01-11T07:35:44.068Z,25
2018-01-11T07:36:44.020Z,25
2018-01-11T07:37:43.460Z,25
2018-01-11T07:38:43.717Z,30
2018-01-11T07:39:43.416Z,30
2018-01-11T07:40:43.393Z,30
2018-01-11T07:41:43.720Z,30
2018-01-11T07:42:43.921Z,30
2018-01-11T07:43:43.071Z,35
2018-01-11T07:44:43.860Z,35
2018-01-11T07:45:43.875Z,35
2018-01-11T07:46:43.562Z,35
2018-01-11T07:47:43.538Z,40
2018-01-11T07:48:43.268Z,40
2018-01-11T07:49:43.500Z,40
2018-01-11T07:50:43.495Z,40
2018-01-11T07:51:43.758Z,40
2018-01-11T07:52:43.717Z,40
2018-01-11T07:53:43.966Z,45
2018-01-11T07:54:43.150Z,45
2018-01-11T07:55:43.122Z,45
2018-01-11T07:56:43.653Z,45
2018-01-11T07:57:42.803Z,45
2018-01-11T07:58:43.337Z,50
2018-01-11T07:59:43.316Z,50
2018-01-11T08:00:43.040Z,50
2018-01-11T08:01:43.285Z,50
2018-01-11T08:02:42.767Z,55
2018-01-11T08:03:43.235Z,55
2018-01-11T08:04:42.954Z,55
2018-01-11T08:05:42.658Z,55
2018-01-11T08:06:42.911Z,55
2018-01-11T08:07:42.893Z,60
2018-01-11T08:08:42.889Z,60
2018-01-11T08:09:43.418Z,60
2018-01-11T08:10:43.379Z,65
2018-01-11T08:11:42.820Z,65
2018-01-11T08:12:43.126Z,70
2018-01-11T08:13:43.328Z,70
2018-01-11T08:14:42.775Z,75
2018-01-11T08:15:42.759Z,75
2018-01-11T08:16:43.238Z,75
2018-01-11T08:17:42.979Z,75
2018-01-11T08:18:42.693Z,75
2018-01-11T08:19:43.226Z,75
2018-01-11T08:20:43.208Z,75
2018-01-11T08:21:42.905Z,75
2018-01-11T08:22:43.173Z,75
2018-01-11T08:23:42.607Z,75
2018-01-11T08:24:42.313Z,80
2018-01-11T08:25:43.139Z,80
2018-01-11T08:26:42.540Z,80
2018-01-11T08:27:42.803Z,80
2018-01-11T08:28:42.508Z,80
2018-01-11T08:29:42.247Z,85
2018-01-11T08:30:42.487Z,85
2018-01-11T08:31:43.269Z,90
2018-01-11T08:32:42.458Z,95
2018-01-11T08:33:43.257Z,95
2018-01-11T08:34:42.677Z,95
2018-01-11T08:35:42.661Z,100
2018-01-11T08:36:42.095Z,100
2018-01-11T08:37:42.077Z,105
2018-01-11T08:38:42.353Z,105
2018-01-11T08:39:42.619Z,105
2018-01-11T08:40:42.584Z,105
2018-01-11T08:41:42.008Z,105
2018-01-11T08:42:42.567Z,105
2018-01-11T08:43:42.245Z,105
2018-01-11T08:44:42.524Z,110
2018-01-11T08:45:42.483Z,110
2018-01-11T08:46:42.192Z,110
2018-01-11T08:47:42.770Z,110
2018-01-11T08:48:42.426Z,110
2018-01-11T08:49:42.429Z,110
2018-01-11T08:50:41.851Z,115
2018-01-11T08:51:42.110Z,115
2018-01-11T08:52:42.366Z,115
2018-01-11T08:53:42.636Z,115
2018-01-11T08:54:41.786Z,115
2018-01-11T08:55:41.776Z,115
2018-01-11T08:56:42.024Z,115
2018-01-11T08:57:42.313Z,110
2018-01-11T08:58:42.287Z,110
2018-01-11T08:59:42.249Z,105
2018-01-11T09:00:42.242Z,105
2018-01-11T09:01:41.958Z,100
2018-01-11T09:02:42.194Z,100
2018-01-11T09:03:42.191Z,95
2018-01-11T09:04:41.897Z,95
2018-01-11T09:05:42.161Z,95
2018-01-11T09:06:41.854Z,100
2018-01-11T09:07:42.126Z,100
2018-01-11T09:08:41.820Z,100
2018-01-11T09:09:42.349Z,100
2018-01-11T09:10:41.987Z,100
2018-01-11T09:11:41.506Z,100
2018-01-11T09:12:41.480Z,100
2018-01-11T09:13:42.074Z,100
2018-01-11T09:14:41.729Z,95
2018-01-11T09:15:41.428Z,95
2018-01-11T09:16:41.690Z,95
2018-01-11T09:17:41.940Z,95
2018-01-11T09:18:41.660Z,100
2018-01-11T09:19:42.254Z,100
2018-01-11T09:20:41.938Z,100
2018-01-11T09:21:41.332Z,100
2018-01-11T09:22:41.595Z,95
2018-01-11T09:23:41.843Z,95
2018-01-11T09:24:41.816Z,95
2018-01-11T09:25:41.832Z,100
2018-01-11T09:26:41.534Z,100
2018-01-11T09:27:41.823Z,100
2018-01-11T09:28:41.774Z,100
2018-01-11T09:29:41.478Z,100
2018-01-11T09:30:41.457Z,100
2018-01-11T09:31:41.991Z,100
2018-01-11T09:32:41.444Z,100
2018-01-11T09:33:41.684Z,100
2018-01-11T09:34:41.675Z,100
2018-01-11T09:35:41.101Z,100
2018-01-11T09:36:41.377Z,105
2018-01-11T09:37:41.363Z,105
2018-01-11T09:38:41.673Z,105
2018-01-11T09:39:41.597Z,105
2018-01-11T09:40:41.570Z,105
2018-01-11T09:41:41.828Z,105
2018-01-11T09:42:41.548Z,105
2018-01-11T09:43:40.977Z,105
2018-01-11T09:44:41.232Z,105
2018-01-11T09:45:41.509Z,110
2018-01-11T09:46:41.743Z,110
2018-01-11T09:47:40.908Z,105
2018-01-11T09:48:41.227Z,110
2018-01-11T09:49:40.888Z,110
2018-01-11T09:50:41.441Z,110
2018-01-11T09:51:40.846Z,110
2018-01-11T09:52:41.121Z,110
2018-01-11T09:53:41.086Z,110
2018-01-11T09:54:41.343Z,110
2018-01-11T09:55:40.826Z,110
2018-01-11T09:56:40.784Z,110
2018-01-11T09:57:41.021Z,115
2018-01-11T09:58:41.283Z,110
2018-01-11T09:59:41.271Z,110
2018-01-11T10:00:41.253Z,110
2018-01-11T10:01:40.687Z,110
2018-01-11T10:02:41.002Z,105
2018-01-11T10:03:40.936Z,105
2018-01-11T10:04:41.187Z,105
2018-01-11T10:05:41.460Z,105
2018-01-11T10:06:40.630Z,105
2018-01-11T10:07:41.416Z,105
2018-01-11T10:08:40.849Z,105
2018-01-11T10:09:40.586Z,105
2018-01-11T10:10:40.599Z,105
2018-01-11T10:11:41.370Z,105
2018-01-11T10:12:41.085Z,105
2018-01-11T10:13:40.501Z,105
2018-01-11T10:14:41.028Z,105
2018-01-11T10:15:40.743Z,105
2018-01-11T10:16:40.749Z,100
2018-01-11T10:17:41.591Z,95
2018-01-11T10:18:40.982Z,95
2018-01-11T10:19:40.953Z,90
2018-01-11T10:20:40.966Z,90
2018-01-11T10:21:41.240Z,90
2018-01-11T10:22:40.927Z,90
2018-01-11T10:23:40.912Z,90
2018-01-11T10:24:40.609Z,95
2018-01-11T10:25:40.586Z,95
2018-01-11T10:26:41.125Z,100
2018-01-11T10:27:40.560Z,95
2018-01-11T10:28:40.817Z,95
2018-01-11T10:29:40.804Z,95
2018-01-11T10:30:41.089Z,95
2018-01-11T10:31:40.522Z,95
2018-01-11T10:32:40.487Z,95
2018-01-11T10:33:40.810Z,95
2018-01-11T10:34:40.482Z,100
2018-01-11T10:35:40.168Z,100
2018-01-11T10:36:41.020Z,100
2018-01-11T10:37:40.157Z,100
2018-01-11T10:38:40.122Z,95
2018-01-11T10:39:40.101Z,95
2018-01-11T10:40:40.653Z,100
2018-01-11T10:41:40.620Z,100
2018-01-11T10:42:40.331Z,105
2018-01-11T10:43:40.044Z,105
2018-01-11T10:44:40.296Z,110
2018-01-11T10:45:40.558Z,110
2018-01-11T10:46:40.271Z,105
2018-01-11T10:47:40.537Z,115
2018-01-11T10:48:40.522Z,115
2018-01-11T10:49:40.225Z,120
2018-01-11T10:50:40.217Z,120
2018-01-11T10:51:40.462Z,120
2018-01-11T10:52:39.924Z,120
2018-01-11T10:53:40.988Z,120
2018-01-11T10:54:40.151Z,120
2018-01-11T10:55:40.413Z,120
2018-01-11T10:56:40.685Z,120
2018-01-11T10:57:39.835Z,125
2018-01-11T10:58:40.380Z,120
2018-01-11T10:59:40.374Z,125
2018-01-11T11:00:40.070Z,125
2018-01-11T11:01:40.049Z,120
2018-01-11T11:02:40.308Z,120
2018-01-11T11:03:39.747Z,120
2018-01-11T11:04:39.730Z,120
2018-01-11T11:05:40.535Z,125
2018-01-11T11:06:40.260Z,125
2018-01-11T11:07:39.692Z,130
2018-01-11T11:08:40.235Z,130
2018-01-11T11:09:39.936Z,140
2018-01-11T11:10:40.199Z,145
2018-01-11T11:11:40.474Z,150
2018-01-11T11:12:39.913Z,150
2018-01-11T11:13:40.218Z,150
2018-01-11T11:14:40.408Z,150
2018-01-11T11:15:40.401Z,155
2018-01-11T11:16:39.568Z,155
2018-01-11T11:17:39.553Z,160
2018-01-11T11:18:39.813Z,160
2018-01-11T11:19:40.069Z,155
2018-01-11T11:20:39.795Z,155
2018-01-11T11:21:40.058Z,155
2018-01-11T11:22:39.498Z,150
2018-01-11T11:23:39.734Z,145
2018-01-11T11:24:39.733Z,150
2018-01-11T11:25:39.985Z,145
2018-01-11T11:26:40.053Z,140
2018-01-11T11:27:39.678Z,135
2018-01-11T11:28:39.671Z,130
2018-01-11T11:29:40.248Z,130
2018-01-11T11:30:39.367Z,125
2018-01-11T11:31:39.627Z,120
2018-01-11T11:32:40.157Z,125
2018-01-11T11:33:52.338Z,120
2018-01-11T11:34:39.607Z,120
2018-01-11T11:35:39.572Z,120
2018-01-11T11:36:40.373Z,120
2018-01-11T11:37:39.547Z,125
2018-01-11T11:38:39.554Z,125
2018-01-11T11:39:39.520Z,125
2018-01-11T11:40:39.542Z,125
2018-01-11T11:41:39.546Z,125
2018-01-11T11:42:40.025Z,125
2018-01-11T11:43:39.737Z,130
2018-01-11T11:44:39.180Z,130
2018-01-11T11:45:39.164Z,135
2018-01-11T11:46:40.250Z,135
2018-01-11T11:47:39.967Z,135
2018-01-11T11:48:39.136Z,135
2018-01-11T11:49:39.391Z,135
2018-01-11T11:50:39.916Z,135
2018-01-11T11:51:39.640Z,135
2018-01-11T11:52:39.626Z,140
2018-01-11T11:53:39.056Z,140
2018-01-11T11:54:39.606Z,140
2018-01-11T11:55:39.577Z,145
2018-01-11T11:56:39.030Z,145
2018-01-11T11:57:40.089Z,145
2018-01-11T11:58:39.260Z,145
2018-01-11T11:59:39.269Z,145
2018-01-11T12:00:39.268Z,145
2018-01-11T12:01:39.224Z,145
2018-01-11T12:02:39.477Z,145
2018-01-11T12:03:39.466Z,145
2018-01-11T12:04:38.909Z,140
2018-01-11T12:05:39.168Z,140
2018-01-11T12:06:39.423Z,140
2018-01-11T12:07:39.168Z,140
2018-01-11T12:08:39.127Z,140
2018-01-11T12:09:39.391Z,140
2018-01-11T12:10:39.098Z,140
2018-01-11T12:11:39.085Z,140
2018-01-11T12:12:39.351Z,140
2018-01-11T12:13:39.354Z,140
2018-01-11T12:14:39.055Z,140
2018-01-11T12:15:39.327Z,140
2018-01-11T12:16:39.610Z,140
2018-01-11T12:17:39.006Z,140
2018-01-11T12:18:39.263Z,140
2018-01-11T12:19:38.707Z,135
2018-01-11T12:20:38.987Z,135
2018-01-11T12:21:39.226Z,135
2018-01-11T12:22:39.214Z,135
2018-01-11T12:23:38.937Z,135
2018-01-11T12:24:39.194Z,135
2018-01-11T12:25:39.184Z,130
2018-01-11T12:26:39.491Z,130
2018-01-11T12:27:39.177Z,130
2018-01-11T12:28:39.409Z,130
2018-01-11T12:29:38.573Z,125
2018-01-11T12:30:39.106Z,125
2018-01-11T12:31:38.824Z,125
2018-01-11T12:32:39.104Z,125
2018-01-11T12:33:39.064Z,125
2018-01-11T12:34:39.052Z,125
2018-01-11T12:35:38.498Z,125
2018-01-11T12:36:39.312Z,125
2018-01-11T12:37:39.057Z,125
2018-01-11T12:38:39.340Z,125
2018-01-11T12:39:39.016Z,125
2018-01-11T12:40:38.701Z,125
2018-01-11T12:41:38.705Z,125
2018-01-11T12:42:38.405Z,125
2018-01-11T12:43:39.210Z,120
2018-01-11T12:44:38.657Z,120
2018-01-11T12:45:38.632Z,120
2018-01-11T12:46:38.897Z,120
2018-01-11T12:47:38.614Z,115
2018-01-11T12:48:39.156Z,115
2018-01-11T12:49:38.590Z,115
2018-01-11T12:50:38.623Z,110
2018-01-11T12:51:38.827Z,110
2018-01-11T12:52:38.270Z,110
2018-01-11T12:53:38.529Z,110
2018-01-11T12:54:38.788Z,105
2018-01-11T12:55:38.234Z,105
2018-01-11T12:56:38.487Z,105
2018-01-11T12:57:38.490Z,105
2018-01-11T12:58:38.192Z,105
2018-01-11T12:59:38.720Z,105
2018-01-11T13:00:38.189Z,105
2018-01-11T13:01:38.442Z,105
2018-01-11T13:02:38.678Z,105
2018-01-11T13:03:38.940Z,105
2018-01-11T13:04:38.672Z,105
2018-01-11T13:05:38.642Z,105
2018-01-11T13:06:38.083Z,105
2018-01-11T13:07:38.625Z,105
2018-01-11T13:08:38.621Z,100
2018-01-11T13:09:38.313Z,100
2018-01-11T13:10:38.863Z,100
2018-01-11T13:11:38.018Z,100
2018-01-11T13:12:38.012Z,100
2018-01-11T13:13:38.552Z,95
2018-01-11T13:14:38.254Z,95
2018-01-11T13:15:37.972Z,95
2018-01-11T13:16:39.086Z,100
2018-01-11T13:17:37.934Z,100
2018-01-11T13:18:38.213Z,100
2018-01-11T13:19:38.456Z,100
2018-01-11T13:20:37.897Z,100
2018-01-11T13:21:38.700Z,105
2018-01-11T13:22:38.450Z,105
2018-01-11T13:23:38.131Z,105
2018-01-11T13:24:38.115Z,100
2018-01-11T13:25:38.651Z,100
2018-01-11T13:26:38.364Z,100
2018-01-11T13:27:38.893Z,100
2018-01-11T13:28:38.621Z,100
2018-01-11T13:29:38.315Z,95
2018-01-11T13:30:38.310Z,95
2018-01-11T13:31:38.029Z,95
2018-01-11T13:32:38.007Z,95
2018-01-11T13:33:38.653Z,90
2018-01-11T13:34:37.983Z,95
2018-01-11T13:35:37.970Z,90
2018-01-11T13:36:37.956Z,90
2018-01-11T13:37:37.943Z,85
2018-01-11T13:38:38.206Z,85
2018-01-11T13:39:38.194Z,85
2018-01-11T13:40:37.924Z,85
2018-01-11T13:41:37.617Z,80
2018-01-11T13:42:38.145Z,80
2018-01-11T13:43:38.421Z,80
2018-01-11T13:44:38.392Z,80
2018-01-11T13:45:38.105Z,80
2018-01-11T13:46:38.363Z,80
2018-01-11T13:47:37.820Z,80
2018-01-11T13:48:37.799Z,75
2018-01-11T13:49:37.511Z,75
2018-01-11T13:50:38.037Z,75
2018-01-11T13:51:37.758Z,75
2018-01-11T13:52:37.749Z,75
2018-01-11T13:53:38.286Z,70
2018-01-11T13:54:37.985Z,70
2018-01-11T13:55:38.300Z,70
2018-01-11T13:56:37.688Z,70
2018-01-11T13:57:37.673Z,70
2018-01-11T13:58:37.942Z,70
2018-01-11T13:59:37.375Z,70
2018-01-11T14:00:37.919Z,65
2018-01-11T14:01:38.167Z,65
2018-01-11T14:02:37.877Z,65
2018-01-11T14:03:37.601Z,65
2018-01-11T14:04:37.610Z,60
2018-01-11T14:05:37.608Z,60
2018-01-11T14:06:37.656Z,60
2018-01-11T14:07:37.832Z,60
2018-01-11T14:08:37.799Z,60
2018-01-11T14:09:37.847Z,60
2018-01-11T14:10:37.776Z,55
2018-01-11T14:11:37.754Z,55
2018-01-11T14:12:37.743Z,55
2018-01-11T14:13:37.744Z,55
2018-01-11T14:14:37.167Z,55
2018-01-11T14:15:37.156Z,55
2018-01-11T14:16:37.436Z,50
2018-01-11T14:17:37.710Z,50
2018-01-11T14:18:37.951Z,50
2018-01-11T14:19:37.670Z,50
2018-01-11T14:20:37.363Z,50
2018-01-11T14:21:37.704Z,50